sensor_id;sensor_type;location;lat;lon;timestamp;P1;durP1;ratioP1;P2;durP2;ratioP2
8252;SDS011;61313;48.396;10.008;2022-11-25T00:01:07;11.10;;;5.83;;
8252;SDS011;61313;48.396;10.008;2022-11-25T00:03:36;11.63;;;6.60;;
8252;SDS011;61313;48.396;10.008;2022-11-25T00:08:48;15.73;;;6.57;;
8252;SDS011;61313;48.396;10.008;2022-11-25T00:11:17;10.03;;;6.00;;
8252;SDS011;61313;48.396;10.008;2022-11-25T00:13:43;14.73;;;7.33;;
8252;SDS011;61313;48.396;10.008;2022-11-25T00:16:12;14.70;;;6.83;;
8252;SDS011;61313;48.396;10.008;2022-11-25T00:18:42;21.83;;;8.00;;
8252;SDS011;61313;48.396;10.008;2022-11-25T00:21:13;19.13;;;7.37;;
8252;SDS011;61313;48.396;10.008;2022-11-25T00:23:40;22.43;;;7.70;;
8252;SDS011;61313;48.396;10.008;2022-11-25T00:26:07;16.07;;;7.63;;
8252;SDS011;61313;48.396;10.008;2022-11-25T00:28:37;15.43;;;7.33;;
8252;SDS011;61313;48.396;10.008;2022-11-25T00:31:13;15.23;;;6.90;;
8252;SDS011;61313;48.396;10.008;2022-11-25T00:33:44;13.60;;;6.80;;
8252;SDS011;61313;48.396;10.008;2022-11-25T00:36:20;13.43;;;8.30;;
8252;SDS011;61313;48.396;10.008;2022-11-25T00:38:51;13.73;;;6.77;;
8252;SDS011;61313;48.396;10.008;2022-11-25T00:41:20;18.80;;;6.80;;
8252;SDS011;61313;48.396;10.008;2022-11-25T00:44:05;10.53;;;6.73;;
8252;SDS011;61313;48.396;10.008;2022-11-25T00:46:51;12.90;;;7.43;;
8252;SDS011;61313;48.396;10.008;2022-11-25T00:49:17;10.87;;;6.03;;
8252;SDS011;61313;48.396;10.008;2022-11-25T00:51:43;12.73;;;7.23;;
8252;SDS011;61313;48.396;10.008;2022-11-25T00:54:08;13.60;;;6.90;;
8252;SDS011;61313;48.396;10.008;2022-11-25T00:56:34;9.90;;;7.27;;
8252;SDS011;61313;48.396;10.008;2022-11-25T00:59:00;17.17;;;6.97;;
8252;SDS011;61313;48.396;10.008;2022-11-25T01:01:25;12.50;;;6.80;;
8252;SDS011;61313;48.396;10.008;2022-11-25T01:03:51;12.50;;;7.20;;
8252;SDS011;61313;48.396;10.008;2022-11-25T01:06:17;15.37;;;6.90;;
8252;SDS011;61313;48.396;10.008;2022-11-25T01:08:43;13.07;;;6.90;;
8252;SDS011;61313;48.396;10.008;2022-11-25T01:11:10;8.97;;;6.47;;
8252;SDS011;61313;48.396;10.008;2022-11-25T01:13:37;11.60;;;6.70;;
8252;SDS011;61313;48.396;10.008;2022-11-25T01:16:03;9.93;;;6.50;;
8252;SDS011;61313;48.396;10.008;2022-11-25T01:18:31;13.60;;;6.73;;
8252;SDS011;61313;48.396;10.008;2022-11-25T01:21:10;11.63;;;6.70;;
8252;SDS011;61313;48.396;10.008;2022-11-25T01:23:38;13.80;;;6.87;;
8252;SDS011;61313;48.396;10.008;2022-11-25T01:26:09;13.70;;;7.80;;
8252;SDS011;61313;48.396;10.008;2022-11-25T01:28:36;13.57;;;6.80;;
8252;SDS011;61313;48.396;10.008;2022-11-25T01:31:07;12.90;;;7.47;;
8252;SDS011;61313;48.396;10.008;2022-11-25T01:33:34;11.20;;;7.47;;
8252;SDS011;61313;48.396;10.008;2022-11-25T01:36:01;15.40;;;7.27;;
8252;SDS011;61313;48.396;10.008;2022-11-25T01:38:31;15.30;;;8.57;;
8252;SDS011;61313;48.396;10.008;2022-11-25T01:40:58;11.60;;;7.30;;
8252;SDS011;61313;48.396;10.008;2022-11-25T01:43:24;12.83;;;8.03;;
8252;SDS011;61313;48.396;10.008;2022-11-25T01:45:52;11.10;;;7.23;;
8252;SDS011;61313;48.396;10.008;2022-11-25T01:48:26;15.20;;;6.93;;
8252;SDS011;61313;48.396;10.008;2022-11-25T01:50:57;14.10;;;8.23;;
8252;SDS011;61313;48.396;10.008;2022-11-25T01:53:23;16.00;;;6.87;;
8252;SDS011;61313;48.396;10.008;2022-11-25T01:55:55;12.13;;;7.43;;
8252;SDS011;61313;48.396;10.008;2022-11-25T01:58:29;11.57;;;6.73;;
8252;SDS011;61313;48.396;10.008;2022-11-25T02:01:01;15.90;;;7.00;;
8252;SDS011;61313;48.396;10.008;2022-11-25T02:03:28;13.83;;;6.87;;
8252;SDS011;61313;48.396;10.008;2022-11-25T02:06:16;13.47;;;5.90;;
8252;SDS011;61313;48.396;10.008;2022-11-25T02:08:52;7.80;;;6.10;;
8252;SDS011;61313;48.396;10.008;2022-11-25T02:11:21;15.70;;;7.37;;
8252;SDS011;61313;48.396;10.008;2022-11-25T02:13:50;18.30;;;7.30;;
8252;SDS011;61313;48.396;10.008;2022-11-25T02:16:17;13.20;;;7.87;;
8252;SDS011;61313;48.396;10.008;2022-11-25T02:18:43;17.93;;;7.00;;
8252;SDS011;61313;48.396;10.008;2022-11-25T02:21:09;7.80;;;5.80;;
8252;SDS011;61313;48.396;10.008;2022-11-25T02:23:42;9.07;;;7.20;;
8252;SDS011;61313;48.396;10.008;2022-11-25T02:26:17;9.50;;;7.60;;
8252;SDS011;61313;48.396;10.008;2022-11-25T02:28:44;11.40;;;8.20;;
8252;SDS011;61313;48.396;10.008;2022-11-25T02:31:10;9.10;;;6.90;;
8252;SDS011;61313;48.396;10.008;2022-11-25T02:33:36;9.90;;;7.80;;
8252;SDS011;61313;48.396;10.008;2022-11-25T02:36:05;10.93;;;8.23;;
8252;SDS011;61313;48.396;10.008;2022-11-25T02:38:38;10.67;;;8.33;;
8252;SDS011;61313;48.396;10.008;2022-11-25T02:43:42;11.90;;;8.50;;
8252;SDS011;61313;48.396;10.008;2022-11-25T02:46:09;12.77;;;7.97;;
8252;SDS011;61313;48.396;10.008;2022-11-25T02:48:37;18.00;;;8.17;;
8252;SDS011;61313;48.396;10.008;2022-11-25T02:51:05;15.00;;;9.03;;
8252;SDS011;61313;48.396;10.008;2022-11-25T02:53:31;11.10;;;7.27;;
8252;SDS011;61313;48.396;10.008;2022-11-25T02:55:57;9.33;;;7.73;;
8252;SDS011;61313;48.396;10.008;2022-11-25T02:58:23;10.57;;;7.70;;
8252;SDS011;61313;48.396;10.008;2022-11-25T03:00:49;10.93;;;7.77;;
8252;SDS011;61313;48.396;10.008;2022-11-25T03:03:15;13.93;;;8.17;;
8252;SDS011;61313;48.396;10.008;2022-11-25T03:05:41;12.73;;;8.10;;
8252;SDS011;61313;48.396;10.008;2022-11-25T03:08:07;11.40;;;7.30;;
8252;SDS011;61313;48.396;10.008;2022-11-25T03:10:34;10.60;;;7.83;;
8252;SDS011;61313;48.396;10.008;2022-11-25T03:13:00;10.60;;;7.73;;
8252;SDS011;61313;48.396;10.008;2022-11-25T03:15:26;10.00;;;7.00;;
8252;SDS011;61313;48.396;10.008;2022-11-25T03:17:52;10.67;;;6.47;;
8252;SDS011;61313;48.396;10.008;2022-11-25T03:20:18;10.97;;;6.27;;
8252;SDS011;61313;48.396;10.008;2022-11-25T03:22:44;10.20;;;7.30;;
8252;SDS011;61313;48.396;10.008;2022-11-25T03:25:11;11.63;;;8.37;;
8252;SDS011;61313;48.396;10.008;2022-11-25T03:27:37;8.13;;;7.00;;
8252;SDS011;61313;48.396;10.008;2022-11-25T03:30:05;7.80;;;6.83;;
8252;SDS011;61313;48.396;10.008;2022-11-25T03:32:36;9.33;;;7.10;;
8252;SDS011;61313;48.396;10.008;2022-11-25T03:35:02;11.40;;;6.93;;
8252;SDS011;61313;48.396;10.008;2022-11-25T03:37:28;10.10;;;7.10;;
8252;SDS011;61313;48.396;10.008;2022-11-25T03:39:54;8.50;;;6.67;;
8252;SDS011;61313;48.396;10.008;2022-11-25T03:42:20;8.20;;;6.33;;
8252;SDS011;61313;48.396;10.008;2022-11-25T03:44:45;8.63;;;7.73;;
8252;SDS011;61313;48.396;10.008;2022-11-25T03:47:11;13.33;;;7.07;;
8252;SDS011;61313;48.396;10.008;2022-11-25T03:49:37;11.87;;;6.70;;
8252;SDS011;61313;48.396;10.008;2022-11-25T03:52:02;8.33;;;7.50;;
8252;SDS011;61313;48.396;10.008;2022-11-25T03:54:28;7.03;;;6.37;;
8252;SDS011;61313;48.396;10.008;2022-11-25T03:56:54;10.30;;;7.43;;
8252;SDS011;61313;48.396;10.008;2022-11-25T03:59:20;15.30;;;6.83;;
8252;SDS011;61313;48.396;10.008;2022-11-25T04:01:46;13.07;;;7.13;;
8252;SDS011;61313;48.396;10.008;2022-11-25T04:04:11;14.77;;;7.43;;
8252;SDS011;61313;48.396;10.008;2022-11-25T04:06:37;8.43;;;6.60;;
8252;SDS011;61313;48.396;10.008;2022-11-25T04:09:04;9.10;;;6.57;;
8252;SDS011;61313;48.396;10.008;2022-11-25T04:11:30;8.37;;;6.50;;
8252;SDS011;61313;48.396;10.008;2022-11-25T04:14:14;7.30;;;6.30;;
8252;SDS011;61313;48.396;10.008;2022-11-25T04:16:40;10.57;;;7.03;;
8252;SDS011;61313;48.396;10.008;2022-11-25T04:19:06;7.60;;;6.20;;
8252;SDS011;61313;48.396;10.008;2022-11-25T04:21:31;10.70;;;7.07;;
8252;SDS011;61313;48.396;10.008;2022-11-25T04:23:57;11.10;;;6.40;;
8252;SDS011;61313;48.396;10.008;2022-11-25T04:26:23;17.63;;;6.70;;
8252;SDS011;61313;48.396;10.008;2022-11-25T04:28:49;8.50;;;6.20;;
8252;SDS011;61313;48.396;10.008;2022-11-25T04:31:14;7.93;;;7.10;;
8252;SDS011;61313;48.396;10.008;2022-11-25T04:33:40;7.80;;;5.70;;
8252;SDS011;61313;48.396;10.008;2022-11-25T04:36:06;8.63;;;7.60;;
8252;SDS011;61313;48.396;10.008;2022-11-25T04:38:32;9.47;;;7.60;;
8252;SDS011;61313;48.396;10.008;2022-11-25T04:40:57;11.40;;;8.50;;
8252;SDS011;61313;48.396;10.008;2022-11-25T04:43:23;8.90;;;7.20;;
8252;SDS011;61313;48.396;10.008;2022-11-25T04:45:49;11.07;;;6.63;;
8252;SDS011;61313;48.396;10.008;2022-11-25T04:48:16;15.30;;;8.47;;
8252;SDS011;61313;48.396;10.008;2022-11-25T04:50:41;7.07;;;6.10;;
8252;SDS011;61313;48.396;10.008;2022-11-25T04:53:07;6.80;;;6.10;;
8252;SDS011;61313;48.396;10.008;2022-11-25T04:55:33;9.13;;;7.37;;
8252;SDS011;61313;48.396;10.008;2022-11-25T04:57:58;12.63;;;6.33;;
8252;SDS011;61313;48.396;10.008;2022-11-25T05:00:24;16.33;;;5.67;;
8252;SDS011;61313;48.396;10.008;2022-11-25T05:02:50;7.60;;;6.27;;
8252;SDS011;61313;48.396;10.008;2022-11-25T05:05:16;8.20;;;5.80;;
8252;SDS011;61313;48.396;10.008;2022-11-25T05:07:42;8.20;;;5.97;;
8252;SDS011;61313;48.396;10.008;2022-11-25T05:10:07;10.67;;;6.60;;
8252;SDS011;61313;48.396;10.008;2022-11-25T05:12:33;13.90;;;6.40;;
8252;SDS011;61313;48.396;10.008;2022-11-25T05:14:59;8.27;;;6.60;;
8252;SDS011;61313;48.396;10.008;2022-11-25T05:17:26;8.60;;;6.83;;
8252;SDS011;61313;48.396;10.008;2022-11-25T05:19:54;7.40;;;6.23;;
8252;SDS011;61313;48.396;10.008;2022-11-25T05:22:21;24.57;;;6.47;;
8252;SDS011;61313;48.396;10.008;2022-11-25T05:24:48;7.60;;;5.60;;
8252;SDS011;61313;48.396;10.008;2022-11-25T05:27:15;10.17;;;6.40;;
8252;SDS011;61313;48.396;10.008;2022-11-25T05:29:40;9.50;;;6.80;;
8252;SDS011;61313;48.396;10.008;2022-11-25T05:32:06;9.10;;;6.10;;
8252;SDS011;61313;48.396;10.008;2022-11-25T05:34:32;13.83;;;6.50;;
8252;SDS011;61313;48.396;10.008;2022-11-25T05:36:58;9.90;;;6.97;;
8252;SDS011;61313;48.396;10.008;2022-11-25T05:39:24;8.80;;;6.77;;
8252;SDS011;61313;48.396;10.008;2022-11-25T05:41:50;16.53;;;5.60;;
8252;SDS011;61313;48.396;10.008;2022-11-25T05:44:15;7.40;;;6.37;;
8252;SDS011;61313;48.396;10.008;2022-11-25T05:46:43;9.10;;;6.60;;
8252;SDS011;61313;48.396;10.008;2022-11-25T05:49:10;11.87;;;7.40;;
8252;SDS011;61313;48.396;10.008;2022-11-25T05:51:37;14.03;;;7.07;;
8252;SDS011;61313;48.396;10.008;2022-11-25T05:54:03;20.30;;;8.53;;
8252;SDS011;61313;48.396;10.008;2022-11-25T05:56:29;18.27;;;7.53;;
8252;SDS011;61313;48.396;10.008;2022-11-25T05:58:54;15.87;;;10.13;;
8252;SDS011;61313;48.396;10.008;2022-11-25T06:01:21;18.90;;;9.10;;
8252;SDS011;61313;48.396;10.008;2022-11-25T06:03:47;15.33;;;8.00;;
8252;SDS011;61313;48.396;10.008;2022-11-25T06:06:13;13.63;;;8.00;;
8252;SDS011;61313;48.396;10.008;2022-11-25T06:08:39;17.87;;;9.63;;
8252;SDS011;61313;48.396;10.008;2022-11-25T06:11:05;14.43;;;8.37;;
8252;SDS011;61313;48.396;10.008;2022-11-25T06:13:36;16.77;;;9.30;;
8252;SDS011;61313;48.396;10.008;2022-11-25T06:16:09;12.90;;;8.50;;
8252;SDS011;61313;48.396;10.008;2022-11-25T06:18:37;26.30;;;8.90;;
8252;SDS011;61313;48.396;10.008;2022-11-25T06:21:03;14.43;;;8.20;;
8252;SDS011;61313;48.396;10.008;2022-11-25T06:23:32;28.03;;;9.17;;
8252;SDS011;61313;48.396;10.008;2022-11-25T06:26:12;18.00;;;8.17;;
8252;SDS011;61313;48.396;10.008;2022-11-25T06:28:40;19.07;;;8.30;;
8252;SDS011;61313;48.396;10.008;2022-11-25T06:31:10;17.60;;;8.93;;
8252;SDS011;61313;48.396;10.008;2022-11-25T06:33:41;16.67;;;8.27;;
8252;SDS011;61313;48.396;10.008;2022-11-25T06:36:10;19.70;;;8.33;;
8252;SDS011;61313;48.396;10.008;2022-11-25T06:38:41;17.70;;;10.37;;
8252;SDS011;61313;48.396;10.008;2022-11-25T06:41:10;14.40;;;8.27;;
8252;SDS011;61313;48.396;10.008;2022-11-25T06:43:37;16.23;;;9.00;;
8252;SDS011;61313;48.396;10.008;2022-11-25T06:46:03;18.03;;;10.30;;
8252;SDS011;61313;48.396;10.008;2022-11-25T06:48:31;25.20;;;11.40;;
8252;SDS011;61313;48.396;10.008;2022-11-25T06:51:01;20.30;;;9.73;;
8252;SDS011;61313;48.396;10.008;2022-11-25T06:53:29;22.63;;;13.83;;
8252;SDS011;61313;48.396;10.008;2022-11-25T06:58:36;20.87;;;10.90;;
8252;SDS011;61313;48.396;10.008;2022-11-25T07:01:03;20.23;;;9.13;;
8252;SDS011;61313;48.396;10.008;2022-11-25T07:03:30;27.53;;;11.20;;
8252;SDS011;61313;48.396;10.008;2022-11-25T07:05:56;34.53;;;11.17;;
8252;SDS011;61313;48.396;10.008;2022-11-25T07:08:23;25.20;;;9.90;;
8252;SDS011;61313;48.396;10.008;2022-11-25T07:10:50;29.07;;;11.50;;
8252;SDS011;61313;48.396;10.008;2022-11-25T07:13:16;17.60;;;9.50;;
8252;SDS011;61313;48.396;10.008;2022-11-25T07:15:41;20.20;;;10.47;;
8252;SDS011;61313;48.396;10.008;2022-11-25T07:18:07;18.60;;;8.83;;
8252;SDS011;61313;48.396;10.008;2022-11-25T07:20:33;13.00;;;9.77;;
8252;SDS011;61313;48.396;10.008;2022-11-25T07:22:58;12.67;;;9.20;;
8252;SDS011;61313;48.396;10.008;2022-11-25T07:25:24;17.63;;;8.83;;
8252;SDS011;61313;48.396;10.008;2022-11-25T07:27:50;12.63;;;9.20;;
8252;SDS011;61313;48.396;10.008;2022-11-25T07:30:15;15.13;;;10.10;;
8252;SDS011;61313;48.396;10.008;2022-11-25T07:32:41;12.70;;;9.50;;
8252;SDS011;61313;48.396;10.008;2022-11-25T07:35:07;15.33;;;9.00;;
8252;SDS011;61313;48.396;10.008;2022-11-25T07:37:33;16.27;;;10.00;;
8252;SDS011;61313;48.396;10.008;2022-11-25T07:39:59;14.57;;;9.97;;
8252;SDS011;61313;48.396;10.008;2022-11-25T07:42:24;16.90;;;9.57;;
8252;SDS011;61313;48.396;10.008;2022-11-25T07:44:50;14.33;;;8.70;;
8252;SDS011;61313;48.396;10.008;2022-11-25T07:47:16;16.27;;;10.30;;
8252;SDS011;61313;48.396;10.008;2022-11-25T07:49:42;13.50;;;9.70;;
8252;SDS011;61313;48.396;10.008;2022-11-25T07:52:08;18.47;;;10.03;;
8252;SDS011;61313;48.396;10.008;2022-11-25T07:54:34;15.03;;;9.97;;
8252;SDS011;61313;48.396;10.008;2022-11-25T07:56:59;19.63;;;10.93;;
8252;SDS011;61313;48.396;10.008;2022-11-25T07:59:25;17.77;;;11.10;;
8252;SDS011;61313;48.396;10.008;2022-11-25T08:01:51;22.70;;;10.20;;
8252;SDS011;61313;48.396;10.008;2022-11-25T08:04:18;26.23;;;10.53;;
8252;SDS011;61313;48.396;10.008;2022-11-25T08:06:45;39.30;;;12.13;;
8252;SDS011;61313;48.396;10.008;2022-11-25T08:09:14;35.27;;;12.03;;
8252;SDS011;61313;48.396;10.008;2022-11-25T08:11:43;22.47;;;9.83;;
8252;SDS011;61313;48.396;10.008;2022-11-25T08:14:09;18.67;;;10.27;;
8252;SDS011;61313;48.396;10.008;2022-11-25T08:16:35;36.83;;;11.40;;
8252;SDS011;61313;48.396;10.008;2022-11-25T08:19:03;26.27;;;12.20;;
8252;SDS011;61313;48.396;10.008;2022-11-25T08:21:30;23.53;;;9.13;;
8252;SDS011;61313;48.396;10.008;2022-11-25T08:23:56;20.37;;;9.93;;
8252;SDS011;61313;48.396;10.008;2022-11-25T08:26:26;17.03;;;10.20;;
8252;SDS011;61313;48.396;10.008;2022-11-25T08:29:02;16.43;;;9.57;;
8252;SDS011;61313;48.396;10.008;2022-11-25T08:31:30;15.57;;;8.80;;
8252;SDS011;61313;48.396;10.008;2022-11-25T08:33:58;12.90;;;8.63;;
8252;SDS011;61313;48.396;10.008;2022-11-25T08:36:24;10.57;;;8.07;;
8252;SDS011;61313;48.396;10.008;2022-11-25T08:38:52;13.10;;;8.77;;
8252;SDS011;61313;48.396;10.008;2022-11-25T08:41:24;15.93;;;8.60;;
8252;SDS011;61313;48.396;10.008;2022-11-25T08:43:50;14.43;;;8.83;;
8252;SDS011;61313;48.396;10.008;2022-11-25T08:46:18;20.10;;;9.00;;
8252;SDS011;61313;48.396;10.008;2022-11-25T08:48:45;12.53;;;8.77;;
8252;SDS011;61313;48.396;10.008;2022-11-25T08:51:16;10.13;;;7.63;;
8252;SDS011;61313;48.396;10.008;2022-11-25T08:53:44;13.77;;;8.90;;
8252;SDS011;61313;48.396;10.008;2022-11-25T08:56:10;36.93;;;11.10;;
8252;SDS011;61313;48.396;10.008;2022-11-25T08:58:36;31.33;;;11.80;;
8252;SDS011;61313;48.396;10.008;2022-11-25T09:01:03;26.97;;;9.90;;
8252;SDS011;61313;48.396;10.008;2022-11-25T09:03:37;12.97;;;7.97;;
8252;SDS011;61313;48.396;10.008;2022-11-25T09:06:05;11.40;;;8.70;;
8252;SDS011;61313;48.396;10.008;2022-11-25T09:08:31;12.07;;;9.20;;
8252;SDS011;61313;48.396;10.008;2022-11-25T09:10:58;12.80;;;7.87;;
8252;SDS011;61313;48.396;10.008;2022-11-25T09:13:24;14.33;;;8.67;;
8252;SDS011;61313;48.396;10.008;2022-11-25T09:15:50;14.80;;;7.50;;
8252;SDS011;61313;48.396;10.008;2022-11-25T09:18:16;9.87;;;6.63;;
8252;SDS011;61313;48.396;10.008;2022-11-25T09:20:44;9.70;;;8.40;;
8252;SDS011;61313;48.396;10.008;2022-11-25T09:23:10;10.10;;;8.40;;
8252;SDS011;61313;48.396;10.008;2022-11-25T09:25:36;9.87;;;8.17;;
8252;SDS011;61313;48.396;10.008;2022-11-25T09:28:02;14.87;;;8.87;;
8252;SDS011;61313;48.396;10.008;2022-11-25T09:30:28;14.00;;;8.20;;
8252;SDS011;61313;48.396;10.008;2022-11-25T09:32:54;8.53;;;7.30;;
8252;SDS011;61313;48.396;10.008;2022-11-25T09:35:21;14.33;;;6.60;;
8252;SDS011;61313;48.396;10.008;2022-11-25T09:37:48;9.60;;;6.87;;
8252;SDS011;61313;48.396;10.008;2022-11-25T09:40:18;8.70;;;7.23;;
8252;SDS011;61313;48.396;10.008;2022-11-25T09:42:56;10.60;;;7.30;;
8252;SDS011;61313;48.396;10.008;2022-11-25T09:52:42;15.60;;;7.80;;
8252;SDS011;61313;48.396;10.008;2022-11-25T09:55:06;16.40;;;8.63;;
8252;SDS011;61313;48.396;10.008;2022-11-25T09:57:54;14.87;;;8.17;;
8252;SDS011;61313;48.396;10.008;2022-11-25T10:00:40;37.30;;;11.10;;
8252;SDS011;61313;48.396;10.008;2022-11-25T10:08:29;38.43;;;10.80;;
8252;SDS011;61313;48.396;10.008;2022-11-25T10:13:50;23.30;;;8.17;;
8252;SDS011;61313;48.396;10.008;2022-11-25T10:24:46;16.27;;;8.60;;
8252;SDS011;61313;48.396;10.008;2022-11-25T10:27:24;15.73;;;8.50;;
8252;SDS011;61313;48.396;10.008;2022-11-25T10:30:11;23.50;;;9.37;;
8252;SDS011;61313;48.396;10.008;2022-11-25T10:35:37;10.03;;;8.50;;
8252;SDS011;61313;48.396;10.008;2022-11-25T10:38:27;20.03;;;9.03;;
8252;SDS011;61313;48.396;10.008;2022-11-25T10:40:54;10.27;;;7.77;;
8252;SDS011;61313;48.396;10.008;2022-11-25T10:43:20;14.83;;;7.83;;
8252;SDS011;61313;48.396;10.008;2022-11-25T10:45:53;10.23;;;7.83;;
8252;SDS011;61313;48.396;10.008;2022-11-25T10:51:07;21.03;;;9.20;;
8252;SDS011;61313;48.396;10.008;2022-11-25T10:53:35;15.93;;;9.37;;
8252;SDS011;61313;48.396;10.008;2022-11-25T10:56:16;14.63;;;8.97;;
8252;SDS011;61313;48.396;10.008;2022-11-25T10:58:42;13.33;;;7.93;;
8252;SDS011;61313;48.396;10.008;2022-11-25T11:01:15;9.80;;;7.83;;
8252;SDS011;61313;48.396;10.008;2022-11-25T11:03:45;33.33;;;9.63;;
8252;SDS011;61313;48.396;10.008;2022-11-25T11:06:39;21.10;;;8.53;;
8252;SDS011;61313;48.396;10.008;2022-11-25T11:09:16;13.63;;;7.20;;
8252;SDS011;61313;48.396;10.008;2022-11-25T11:11:54;14.43;;;7.90;;
8252;SDS011;61313;48.396;10.008;2022-11-25T11:14:20;21.33;;;8.93;;
8252;SDS011;61313;48.396;10.008;2022-11-25T11:16:51;18.10;;;9.30;;
8252;SDS011;61313;48.396;10.008;2022-11-25T11:19:19;16.53;;;9.03;;
8252;SDS011;61313;48.396;10.008;2022-11-25T11:21:50;10.00;;;7.77;;
8252;SDS011;61313;48.396;10.008;2022-11-25T11:24:32;35.40;;;10.43;;
8252;SDS011;61313;48.396;10.008;2022-11-25T11:27:15;43.20;;;12.40;;
8252;SDS011;61313;48.396;10.008;2022-11-25T11:29:45;28.50;;;9.60;;
8252;SDS011;61313;48.396;10.008;2022-11-25T11:32:23;33.60;;;10.27;;
8252;SDS011;61313;48.396;10.008;2022-11-25T11:50:28;9.33;;;6.80;;
8252;SDS011;61313;48.396;10.008;2022-11-25T11:53:21;17.90;;;7.60;;
8252;SDS011;61313;48.396;10.008;2022-11-25T12:01:24;9.93;;;6.10;;
8252;SDS011;61313;48.396;10.008;2022-11-25T12:06:57;10.27;;;6.83;;
8252;SDS011;61313;48.396;10.008;2022-11-25T12:09:31;7.87;;;6.23;;
8252;SDS011;61313;48.396;10.008;2022-11-25T12:12:07;12.67;;;6.70;;
8252;SDS011;61313;48.396;10.008;2022-11-25T12:14:46;14.30;;;8.07;;
8252;SDS011;61313;48.396;10.008;2022-11-25T12:17:29;9.17;;;7.00;;
8252;SDS011;61313;48.396;10.008;2022-11-25T12:20:15;8.07;;;6.23;;
8252;SDS011;61313;48.396;10.008;2022-11-25T12:23:14;12.00;;;6.50;;
8252;SDS011;61313;48.396;10.008;2022-11-25T12:26:01;8.47;;;6.20;;
8252;SDS011;61313;48.396;10.008;2022-11-25T12:28:34;17.63;;;8.57;;
8252;SDS011;61313;48.396;10.008;2022-11-25T12:31:12;7.47;;;6.07;;
8252;SDS011;61313;48.396;10.008;2022-11-25T12:34:02;15.37;;;7.13;;
8252;SDS011;61313;48.396;10.008;2022-11-25T12:36:39;16.47;;;8.00;;
8252;SDS011;61313;48.396;10.008;2022-11-25T12:41:59;28.27;;;7.90;;
8252;SDS011;61313;48.396;10.008;2022-11-25T12:44:34;47.13;;;9.80;;
8252;SDS011;61313;48.396;10.008;2022-11-25T12:47:10;18.03;;;7.40;;
8252;SDS011;61313;48.396;10.008;2022-11-25T12:49:41;13.87;;;7.30;;
8252;SDS011;61313;48.396;10.008;2022-11-25T13:05:29;11.17;;;6.80;;
8252;SDS011;61313;48.396;10.008;2022-11-25T13:13:52;119.07;;;19.17;;
8252;SDS011;61313;48.396;10.008;2022-11-25T13:16:22;29.47;;;10.03;;
8252;SDS011;61313;48.396;10.008;2022-11-25T13:18:48;35.40;;;7.20;;
8252;SDS011;61313;48.396;10.008;2022-11-25T13:21:15;12.03;;;7.17;;
8252;SDS011;61313;48.396;10.008;2022-11-25T13:23:53;15.60;;;6.57;;
8252;SDS011;61313;48.396;10.008;2022-11-25T13:26:45;25.80;;;7.70;;
8252;SDS011;61313;48.396;10.008;2022-11-25T13:36:57;7.83;;;6.27;;
8252;SDS011;61313;48.396;10.008;2022-11-25T13:39:34;22.57;;;6.90;;
8252;SDS011;61313;48.396;10.008;2022-11-25T13:44:30;38.47;;;10.23;;
8252;SDS011;61313;48.396;10.008;2022-11-25T13:49:57;13.77;;;7.93;;
8252;SDS011;61313;48.396;10.008;2022-11-25T13:52:46;16.37;;;6.50;;
8252;SDS011;61313;48.396;10.008;2022-11-25T13:55:30;28.10;;;9.30;;
8252;SDS011;61313;48.396;10.008;2022-11-25T14:08:50;15.43;;;8.40;;
8252;SDS011;61313;48.396;10.008;2022-11-25T14:26:08;16.63;;;7.50;;
8252;SDS011;61313;48.396;10.008;2022-11-25T14:30:47;23.53;;;7.03;;
8252;SDS011;61313;48.396;10.008;2022-11-25T14:33:17;17.63;;;7.80;;
8252;SDS011;61313;48.396;10.008;2022-11-25T14:35:53;23.20;;;7.03;;
8252;SDS011;61313;48.396;10.008;2022-11-25T14:38:30;17.23;;;6.90;;
8252;SDS011;61313;48.396;10.008;2022-11-25T14:43:57;13.83;;;6.47;;
8252;SDS011;61313;48.396;10.008;2022-11-25T14:46:29;24.47;;;8.47;;
8252;SDS011;61313;48.396;10.008;2022-11-25T14:48:59;19.93;;;7.73;;
8252;SDS011;61313;48.396;10.008;2022-11-25T14:51:27;18.33;;;8.33;;
8252;SDS011;61313;48.396;10.008;2022-11-25T14:53:58;28.80;;;9.57;;
8252;SDS011;61313;48.396;10.008;2022-11-25T14:56:25;35.53;;;8.87;;
8252;SDS011;61313;48.396;10.008;2022-11-25T14:58:57;13.97;;;7.83;;
8252;SDS011;61313;48.396;10.008;2022-11-25T15:04:14;17.30;;;8.10;;
8252;SDS011;61313;48.396;10.008;2022-11-25T15:06:50;25.70;;;9.03;;
8252;SDS011;61313;48.396;10.008;2022-11-25T15:09:19;30.53;;;9.57;;
8252;SDS011;61313;48.396;10.008;2022-11-25T15:11:45;36.70;;;10.30;;
8252;SDS011;61313;48.396;10.008;2022-11-25T15:14:46;25.80;;;8.90;;
8252;SDS011;61313;48.396;10.008;2022-11-25T15:17:16;16.17;;;8.63;;
8252;SDS011;61313;48.396;10.008;2022-11-25T15:19:56;17.47;;;11.03;;
8252;SDS011;61313;48.396;10.008;2022-11-25T15:22:25;22.23;;;15.83;;
8252;SDS011;61313;48.396;10.008;2022-11-25T15:24:53;35.47;;;17.50;;
8252;SDS011;61313;48.396;10.008;2022-11-25T15:27:21;43.60;;;17.63;;
8252;SDS011;61313;48.396;10.008;2022-11-25T15:29:52;32.13;;;18.07;;
8252;SDS011;61313;48.396;10.008;2022-11-25T15:34:56;29.43;;;16.20;;
8252;SDS011;61313;48.396;10.008;2022-11-25T15:37:23;22.70;;;11.13;;
8252;SDS011;61313;48.396;10.008;2022-11-25T15:39:49;24.87;;;14.00;;
8252;SDS011;61313;48.396;10.008;2022-11-25T15:42:35;29.47;;;11.40;;
8252;SDS011;61313;48.396;10.008;2022-11-25T15:45:02;35.57;;;10.50;;
8252;SDS011;61313;48.396;10.008;2022-11-25T15:47:34;37.83;;;16.30;;
8252;SDS011;61313;48.396;10.008;2022-11-25T15:52:32;19.20;;;8.50;;
8252;SDS011;61313;48.396;10.008;2022-11-25T15:55:18;9.87;;;5.73;;
8252;SDS011;61313;48.396;10.008;2022-11-25T15:57:44;13.90;;;6.70;;
8252;SDS011;61313;48.396;10.008;2022-11-25T16:00:15;8.80;;;5.50;;
8252;SDS011;61313;48.396;10.008;2022-11-25T16:11:08;9.60;;;4.43;;
8252;SDS011;61313;48.396;10.008;2022-11-25T16:18:24;4.33;;;3.70;;
8252;SDS011;61313;48.396;10.008;2022-11-25T16:20:56;7.10;;;4.57;;
8252;SDS011;61313;48.396;10.008;2022-11-25T16:23:25;10.00;;;4.57;;
8252;SDS011;61313;48.396;10.008;2022-11-25T16:26:02;7.83;;;3.60;;
8252;SDS011;61313;48.396;10.008;2022-11-25T16:28:40;17.27;;;4.60;;
8252;SDS011;61313;48.396;10.008;2022-11-25T16:31:14;7.87;;;4.00;;
8252;SDS011;61313;48.396;10.008;2022-11-25T16:33:40;7.87;;;3.70;;
8252;SDS011;61313;48.396;10.008;2022-11-25T16:36:06;5.60;;;3.67;;
8252;SDS011;61313;48.396;10.008;2022-11-25T16:38:32;9.77;;;5.10;;
8252;SDS011;61313;48.396;10.008;2022-11-25T16:40:58;4.80;;;3.27;;
8252;SDS011;61313;48.396;10.008;2022-11-25T16:43:26;7.30;;;2.83;;
8252;SDS011;61313;48.396;10.008;2022-11-25T16:45:53;5.93;;;3.20;;
8252;SDS011;61313;48.396;10.008;2022-11-25T16:48:22;5.70;;;4.00;;
8252;SDS011;61313;48.396;10.008;2022-11-25T16:50:48;8.20;;;4.07;;
8252;SDS011;61313;48.396;10.008;2022-11-25T16:53:15;6.17;;;3.33;;
8252;SDS011;61313;48.396;10.008;2022-11-25T16:55:42;14.20;;;4.77;;
8252;SDS011;61313;48.396;10.008;2022-11-25T16:58:22;7.13;;;4.03;;
8252;SDS011;61313;48.396;10.008;2022-11-25T17:00:50;7.00;;;4.20;;
8252;SDS011;61313;48.396;10.008;2022-11-25T17:03:18;7.80;;;4.87;;
8252;SDS011;61313;48.396;10.008;2022-11-25T17:05:44;8.63;;;5.13;;
8252;SDS011;61313;48.396;10.008;2022-11-25T17:08:11;8.73;;;5.00;;
8252;SDS011;61313;48.396;10.008;2022-11-25T17:10:37;11.97;;;4.90;;
8252;SDS011;61313;48.396;10.008;2022-11-25T17:13:05;15.73;;;4.93;;
8252;SDS011;61313;48.396;10.008;2022-11-25T17:15:31;14.13;;;5.27;;
8252;SDS011;61313;48.396;10.008;2022-11-25T17:18:02;7.37;;;5.00;;